createdAt,value
2023-05-06T00:00:14.868Z,25.00
2023-05-06T00:01:14.873Z,25.00
2023-05-06T00:02:14.895Z,15.96
2023-05-06T00:03:14.986Z,10.42
2023-05-06T00:04:14.860Z,3.06
2023-05-06T00:05:14.839Z,0.66
2023-05-06T00:06:14.820Z,0.00
2023-05-06T00:07:14.824Z,0.00
2023-05-06T00:08:14.793Z,6.45
2023-05-06T00:09:14.794Z,24.18
2023-05-06T00:10:14.810Z,25.00
2023-05-06T00:11:14.778Z,25.00
2023-05-06T00:12:14.811Z,42.19
2023-05-06T00:13:14.935Z,30.39
2023-05-06T00:14:14.755Z,24.45
2023-05-06T00:15:14.750Z,25.63
2023-05-06T00:16:15.594Z,26.75
2023-05-06T00:17:14.744Z,25.98
2023-05-06T00:18:14.745Z,25.00
2023-05-06T00:19:14.731Z,33.28
2023-05-06T00:20:14.720Z,20.89
2023-05-06T00:21:14.699Z,27.56
2023-05-06T00:22:14.699Z,30.38
2023-05-06T00:23:14.689Z,35.01
2023-05-06T00:24:14.698Z,32.35
2023-05-06T00:25:14.704Z,81.19
2023-05-06T00:26:14.744Z,76.72
2023-05-06T00:27:14.804Z,44.95
2023-05-06T00:28:14.882Z,39.95
2023-05-06T00:29:14.995Z,37.15
2023-05-06T00:30:14.956Z,40.88
2023-05-06T00:31:15.094Z,46.97
2023-05-06T00:32:15.040Z,75.67
2023-05-06T00:33:15.120Z,94.55
2023-05-06T00:34:15.153Z,86.66
2023-05-06T00:35:15.214Z,66.50
2023-05-06T00:36:15.292Z,38.26
2023-05-06T00:37:15.330Z,31.69
2023-05-06T00:38:15.440Z,34.97
2023-05-06T00:39:15.460Z,25.27
2023-05-06T00:40:15.535Z,30.56
2023-05-06T00:41:15.594Z,39.04
2023-05-06T00:42:15.669Z,38.18
2023-05-06T00:43:15.771Z,25.19
2023-05-06T00:44:15.807Z,26.82
2023-05-06T00:45:15.956Z,25.60
2023-05-06T00:46:15.987Z,40.47
2023-05-06T00:47:15.983Z,59.29
2023-05-06T00:48:16.166Z,65.18
2023-05-06T00:49:16.101Z,95.27
2023-05-06T00:50:16.154Z,143.05
2023-05-06T00:51:16.212Z,141.88
2023-05-06T00:52:16.264Z,137.66
2023-05-06T00:53:16.332Z,142.15
2023-05-06T00:54:16.380Z,133.87
2023-05-06T00:55:16.445Z,125.73
2023-05-06T00:56:17.231Z,133.74
2023-05-06T00:57:16.509Z,125.31
2023-05-06T00:58:16.495Z,125.97
2023-05-06T00:59:16.490Z,128.84
2023-05-06T01:00:16.497Z,123.62
2023-05-06T01:01:16.685Z,115.10
2023-05-06T01:02:16.567Z,109.46
2023-05-06T01:03:16.587Z,110.16
2023-05-06T01:04:16.494Z,123.41
2023-05-06T01:05:16.610Z,101.92
2023-05-06T01:06:16.484Z,99.32
2023-05-06T01:07:16.499Z,97.98
2023-05-06T01:08:16.521Z,94.96
2023-05-06T01:09:16.518Z,90.76
2023-05-06T01:10:16.487Z,96.93
2023-05-06T01:11:16.489Z,101.89
2023-05-06T01:12:16.476Z,101.62
2023-05-06T01:13:16.559Z,114.53
2023-05-06T01:14:16.488Z,123.75
2023-05-06T01:15:16.523Z,124.41
2023-05-06T01:16:16.490Z,133.69
2023-05-06T01:17:16.588Z,126.70
2023-05-06T01:18:16.463Z,135.09
2023-05-06T01:19:16.457Z,136.00
2023-05-06T01:20:16.508Z,126.87
2023-05-06T01:21:16.437Z,120.04
2023-05-06T01:22:16.451Z,137.71
2023-05-06T01:23:16.433Z,145.42
2023-05-06T01:24:16.434Z,143.57
2023-05-06T01:25:16.456Z,141.10
2023-05-06T01:26:16.477Z,122.94
2023-05-06T01:27:16.538Z,121.75
2023-05-06T01:28:16.628Z,102.74
2023-05-06T01:29:16.683Z,99.98
2023-05-06T01:30:16.784Z,77.96
2023-05-06T01:31:16.887Z,54.72
2023-05-06T01:32:16.897Z,40.04
2023-05-06T01:33:17.119Z,35.13
2023-05-06T01:34:16.999Z,47.90
2023-05-06T01:35:17.047Z,55.89
2023-05-06T01:36:17.143Z,53.32
2023-05-06T01:37:17.277Z,52.80
2023-05-06T01:38:17.266Z,71.07
2023-05-06T01:39:17.329Z,80.20
2023-05-06T01:40:17.398Z,96.20
2023-05-06T01:41:17.467Z,96.51
2023-05-06T01:42:17.567Z,108.67
2023-05-06T01:43:17.590Z,113.43
2023-05-06T01:44:18.335Z,107.32
2023-05-06T01:45:17.719Z,111.34
2023-05-06T01:46:17.793Z,110.71
2023-05-06T01:47:17.839Z,114.54
2023-05-06T01:48:17.861Z,105.20
2023-05-06T01:49:17.913Z,105.93
2023-05-06T01:50:17.969Z,97.04
2023-05-06T01:51:18.025Z,91.68
2023-05-06T01:52:18.116Z,83.07
2023-05-06T01:53:18.067Z,88.40
2023-05-06T01:54:18.096Z,97.82
2023-05-06T01:55:18.087Z,100.39
2023-05-06T01:56:18.127Z,108.97
2023-05-06T01:57:18.149Z,110.24
2023-05-06T01:58:18.162Z,119.77
2023-05-06T01:59:18.171Z,124.54
2023-05-06T02:00:18.205Z,122.19
2023-05-06T02:01:18.233Z,139.53
2023-05-06T02:02:18.206Z,136.55
2023-05-06T02:03:18.319Z,137.99
2023-05-06T02:04:18.244Z,130.57
2023-05-06T02:05:18.285Z,131.29
2023-05-06T02:06:18.273Z,120.82
2023-05-06T02:07:18.294Z,98.49
2023-05-06T02:08:18.348Z,99.04
2023-05-06T02:09:18.311Z,120.58
2023-05-06T02:10:18.327Z,158.49
2023-05-06T02:11:18.343Z,171.74
2023-05-06T02:12:18.373Z,166.71
2023-05-06T02:13:18.535Z,169.11
2023-05-06T02:14:18.411Z,148.44
2023-05-06T02:15:18.445Z,100.83
2023-05-06T02:16:18.579Z,80.42
2023-05-06T02:17:18.478Z,73.58
2023-05-06T02:18:18.574Z,73.11
2023-05-06T02:19:18.540Z,75.08
2023-05-06T02:20:18.568Z,86.76
2023-05-06T02:21:18.731Z,87.80
2023-05-06T02:22:18.625Z,91.71
2023-05-06T02:23:18.653Z,90.52
2023-05-06T02:24:18.688Z,85.64
2023-05-06T02:25:18.730Z,90.53
2023-05-06T02:26:18.756Z,100.17
2023-05-06T02:27:18.756Z,87.34
2023-05-06T02:28:18.804Z,90.34
2023-05-06T02:29:18.814Z,109.20
2023-05-06T02:30:18.868Z,125.64
2023-05-06T02:31:18.943Z,116.00
2023-05-06T02:32:18.906Z,111.83
2023-05-06T02:33:18.967Z,116.69
2023-05-06T02:34:18.962Z,120.06
2023-05-06T02:35:18.989Z,126.13
2023-05-06T02:36:19.023Z,116.82
2023-05-06T02:37:19.181Z,99.67
2023-05-06T02:38:19.298Z,78.85
2023-05-06T02:39:19.099Z,70.90
2023-05-06T02:40:19.163Z,76.44
2023-05-06T02:41:19.173Z,61.07
2023-05-06T02:42:19.230Z,57.80
2023-05-06T02:43:19.239Z,55.05
2023-05-06T02:44:19.290Z,56.84
2023-05-06T02:45:19.397Z,61.39
2023-05-06T02:46:19.452Z,55.23
2023-05-06T02:47:19.502Z,56.36
2023-05-06T02:48:19.533Z,75.79
2023-05-06T02:49:19.601Z,100.37
2023-05-06T02:50:19.683Z,115.58
2023-05-06T02:51:19.695Z,116.87
2023-05-06T02:52:19.752Z,107.98
2023-05-06T02:53:19.898Z,116.47
2023-05-06T02:54:19.889Z,100.07
2023-05-06T02:55:20.052Z,98.22
2023-05-06T02:56:20.061Z,96.88
2023-05-06T02:57:20.124Z,99.82
2023-05-06T02:58:20.171Z,101.85
2023-05-06T02:59:20.216Z,99.74
2023-05-06T03:00:20.264Z,101.20
2023-05-06T03:01:20.370Z,115.69
2023-05-06T03:02:20.384Z,130.98
2023-05-06T03:03:20.448Z,125.99
2023-05-06T03:04:20.545Z,121.64
2023-05-06T03:05:20.572Z,80.25
2023-05-06T03:06:20.611Z,67.81
2023-05-06T03:07:20.662Z,75.27
2023-05-06T03:08:20.682Z,79.60
2023-05-06T03:09:20.845Z,95.58
2023-05-06T03:10:20.811Z,68.34
2023-05-06T03:11:20.776Z,51.14
2023-05-06T03:12:20.811Z,46.55
2023-05-06T03:13:20.875Z,49.35
2023-05-06T03:14:22.028Z,44.08
2023-05-06T03:15:20.913Z,59.40
2023-05-06T03:16:20.915Z,75.65
2023-05-06T03:17:20.925Z,70.60
2023-05-06T03:18:20.947Z,68.42
2023-05-06T03:19:20.972Z,57.76
2023-05-06T03:20:20.989Z,54.31
2023-05-06T03:21:21.039Z,47.62
2023-05-06T03:22:21.049Z,28.41
2023-05-06T03:23:21.063Z,28.93
2023-05-06T03:24:21.092Z,31.76
2023-05-06T03:25:21.197Z,25.62
2023-05-06T03:26:21.127Z,38.19
2023-05-06T03:27:21.182Z,31.18
2023-05-06T03:28:21.248Z,32.88
2023-05-06T03:29:21.186Z,34.46
2023-05-06T03:30:21.225Z,36.36
2023-05-06T03:31:21.309Z,42.44
2023-05-06T03:32:21.220Z,44.76
2023-05-06T03:33:21.260Z,46.09
2023-05-06T03:34:21.276Z,36.76
2023-05-06T03:35:21.324Z,30.55
2023-05-06T03:36:21.333Z,28.68
2023-05-06T03:37:21.351Z,31.48
2023-05-06T03:38:21.400Z,36.33
2023-05-06T03:39:21.432Z,28.02
2023-05-06T03:40:21.502Z,25.00
2023-05-06T03:41:21.721Z,25.00
2023-05-06T03:42:21.565Z,26.79
2023-05-06T03:43:21.572Z,33.73
2023-05-06T03:44:21.595Z,59.36
2023-05-06T03:45:21.652Z,57.61
2023-05-06T03:46:21.707Z,54.81
2023-05-06T03:47:21.671Z,67.68
2023-05-06T03:48:21.722Z,74.65
2023-05-06T03:49:21.708Z,65.69
2023-05-06T03:50:21.829Z,71.61
2023-05-06T03:51:22.688Z,78.24
2023-05-06T03:52:21.806Z,57.77
2023-05-06T03:53:21.849Z,86.98
2023-05-06T03:54:21.852Z,70.47
2023-05-06T03:55:21.874Z,43.26
2023-05-06T03:56:21.911Z,30.37
2023-05-06T03:57:21.931Z,26.60
2023-05-06T03:58:21.938Z,31.42
2023-05-06T03:59:21.950Z,31.46
2023-05-06T04:00:22.000Z,42.66
2023-05-06T04:01:21.994Z,54.39
2023-05-06T04:02:22.091Z,61.74
2023-05-06T04:03:22.135Z,67.50
2023-05-06T04:04:22.058Z,70.86
2023-05-06T04:05:22.106Z,69.68
2023-05-06T04:06:22.083Z,77.26
2023-05-06T04:07:22.111Z,76.12
2023-05-06T04:08:22.154Z,86.35
2023-05-06T04:09:22.166Z,102.71
2023-05-06T04:10:22.187Z,116.38
2023-05-06T04:11:22.174Z,128.15
2023-05-06T04:12:22.215Z,133.84
2023-05-06T04:13:22.440Z,136.73
2023-05-06T04:14:22.296Z,133.61
2023-05-06T04:15:22.307Z,133.27
2023-05-06T04:16:22.367Z,133.79
2023-05-06T04:17:22.353Z,132.61
2023-05-06T04:18:22.387Z,134.57
2023-05-06T04:19:22.427Z,135.85
2023-05-06T04:20:22.476Z,136.24
2023-05-06T04:21:22.555Z,142.63
2023-05-06T04:22:22.560Z,143.77
2023-05-06T04:23:22.605Z,147.76
2023-05-06T04:24:22.649Z,156.66
2023-05-06T04:25:23.525Z,154.92
2023-05-06T04:26:22.723Z,147.52
2023-05-06T04:27:22.779Z,157.24
2023-05-06T04:28:22.851Z,160.52
2023-05-06T04:29:23.003Z,145.38
2023-05-06T04:30:23.000Z,143.33
2023-05-06T04:31:23.058Z,145.79
2023-05-06T04:32:23.075Z,135.42
2023-05-06T04:33:23.116Z,130.74
2023-05-06T04:34:23.533Z,113.41
2023-05-06T04:35:23.144Z,121.43
2023-05-06T04:36:23.163Z,125.33
2023-05-06T04:37:23.175Z,119.81
2023-05-06T04:38:23.236Z,118.66
2023-05-06T04:39:23.314Z,126.57
2023-05-06T04:40:23.393Z,110.56
2023-05-06T04:41:23.444Z,99.63
2023-05-06T04:42:23.483Z,92.79
2023-05-06T04:43:23.481Z,94.93
2023-05-06T04:44:23.530Z,96.24
2023-05-06T04:45:23.687Z,102.04
2023-05-06T04:46:23.674Z,99.43
2023-05-06T04:47:23.733Z,98.66
2023-05-06T04:48:23.750Z,96.63
2023-05-06T04:49:23.818Z,104.86
2023-05-06T04:50:23.862Z,109.97
2023-05-06T04:51:23.976Z,103.98
2023-05-06T04:52:24.068Z,106.04
2023-05-06T04:53:24.074Z,113.35
2023-05-06T04:54:24.149Z,120.34
2023-05-06T04:55:24.211Z,94.85
2023-05-06T04:56:24.273Z,84.02
2023-05-06T04:57:24.339Z,60.48
2023-05-06T04:58:24.402Z,50.92
2023-05-06T04:59:24.474Z,45.67
2023-05-06T05:00:24.548Z,33.27
2023-05-06T05:01:24.749Z,47.42
2023-05-06T05:02:24.778Z,42.54
2023-05-06T05:03:24.834Z,47.12
2023-05-06T05:04:24.779Z,42.77
2023-05-06T05:05:24.837Z,39.37
2023-05-06T05:06:24.897Z,26.54
2023-05-06T05:07:24.964Z,25.37
2023-05-06T05:08:25.022Z,27.56
2023-05-06T05:09:25.084Z,28.83
2023-05-06T05:10:25.158Z,25.00
2023-05-06T05:11:25.220Z,25.00
2023-05-06T05:12:25.267Z,26.90
2023-05-06T05:13:25.293Z,34.93
2023-05-06T05:14:25.315Z,45.46
2023-05-06T05:15:25.363Z,64.39
2023-05-06T05:16:25.470Z,62.72
2023-05-06T05:17:25.623Z,63.73
2023-05-06T05:18:25.585Z,77.30
2023-05-06T05:19:25.628Z,98.26
2023-05-06T05:20:25.683Z,83.61
2023-05-06T05:21:25.772Z,81.43
2023-05-06T05:22:25.795Z,88.73
2023-05-06T05:23:25.853Z,87.51
2023-05-06T05:24:25.901Z,85.48
2023-05-06T05:25:25.938Z,82.92
2023-05-06T05:26:26.004Z,69.76
2023-05-06T05:27:26.060Z,63.61
2023-05-06T05:28:26.105Z,67.83
2023-05-06T05:29:26.455Z,58.64
2023-05-06T05:30:26.215Z,63.32
2023-05-06T05:31:26.348Z,75.82
2023-05-06T05:32:26.361Z,91.05
2023-05-06T05:33:26.483Z,92.86
2023-05-06T05:34:26.412Z,84.53
2023-05-06T05:35:26.467Z,89.36
2023-05-06T05:36:26.522Z,97.77
2023-05-06T05:37:26.567Z,120.23
2023-05-06T05:38:26.621Z,125.73
2023-05-06T05:39:26.676Z,115.38
2023-05-06T05:40:26.730Z,124.58
2023-05-06T05:41:26.829Z,117.17
2023-05-06T05:42:26.819Z,108.83
2023-05-06T05:43:26.861Z,131.65
2023-05-06T05:44:26.896Z,128.63
2023-05-06T05:45:26.963Z,129.53
2023-05-06T05:46:27.022Z,144.22
2023-05-06T05:47:27.119Z,151.71
2023-05-06T05:48:27.103Z,129.71
2023-05-06T05:49:27.302Z,99.72
2023-05-06T05:50:27.206Z,90.26
2023-05-06T05:51:27.236Z,91.80
2023-05-06T05:52:27.293Z,101.78
2023-05-06T05:53:27.341Z,105.11
2023-05-06T05:54:27.391Z,113.39
2023-05-06T05:55:27.495Z,116.51
2023-05-06T05:56:27.497Z,109.25
2023-05-06T05:57:27.561Z,116.33
2023-05-06T05:58:27.601Z,114.58
2023-05-06T05:59:27.654Z,96.32
2023-05-06T06:00:27.691Z,80.34
2023-05-06T06:01:27.767Z,56.80
2023-05-06T06:02:27.925Z,58.66
2023-05-06T06:03:27.948Z,66.24
2023-05-06T06:04:27.957Z,64.50
2023-05-06T06:05:28.052Z,49.67
2023-05-06T06:06:28.000Z,58.84
2023-05-06T06:07:28.062Z,63.17
2023-05-06T06:08:28.125Z,72.18
2023-05-06T06:09:28.148Z,83.42
2023-05-06T06:10:28.202Z,94.05
2023-05-06T06:11:28.245Z,145.64
2023-05-06T06:12:28.324Z,132.98
2023-05-06T06:13:29.116Z,132.72
2023-05-06T06:14:28.409Z,129.05
2023-05-06T06:15:28.458Z,141.93
2023-05-06T06:16:28.576Z,133.21
2023-05-06T06:17:28.665Z,138.31
2023-05-06T06:18:28.638Z,144.98
2023-05-06T06:19:28.680Z,127.63
2023-05-06T06:20:28.830Z,117.24
2023-05-06T06:21:28.824Z,109.56
2023-05-06T06:22:28.859Z,126.36
2023-05-06T06:23:28.906Z,127.15
2023-05-06T06:24:28.956Z,116.04
2023-05-06T06:25:29.274Z,88.45
2023-05-06T06:26:29.085Z,81.24
2023-05-06T06:27:29.169Z,65.88
2023-05-06T06:28:29.213Z,61.38
2023-05-06T06:29:29.260Z,59.81
2023-05-06T06:30:29.318Z,70.41
2023-05-06T06:31:29.468Z,68.96
2023-05-06T06:32:29.443Z,50.23
2023-05-06T06:33:29.450Z,47.76
2023-05-06T06:34:29.499Z,47.09
2023-05-06T06:35:29.547Z,45.28
2023-05-06T06:36:29.578Z,43.65
2023-05-06T06:37:29.657Z,55.15
2023-05-06T06:38:29.681Z,45.51
2023-05-06T06:39:29.778Z,64.80
2023-05-06T06:40:29.787Z,67.80
2023-05-06T06:41:29.824Z,54.90
2023-05-06T06:42:29.871Z,91.51
2023-05-06T06:43:29.928Z,140.60
2023-05-06T06:44:29.962Z,177.45
2023-05-06T06:45:30.106Z,140.90
2023-05-06T06:46:30.066Z,131.66
2023-05-06T06:47:30.099Z,103.17
2023-05-06T06:48:30.125Z,76.18
2023-05-06T06:49:30.158Z,70.65
2023-05-06T06:50:30.181Z,44.69
2023-05-06T06:51:30.221Z,63.08
2023-05-06T06:52:30.237Z,46.56
2023-05-06T06:53:30.476Z,38.31
2023-05-06T06:54:30.368Z,42.38
2023-05-06T06:55:30.356Z,55.86
2023-05-06T06:56:30.366Z,103.60
2023-05-06T06:57:30.401Z,91.72
2023-05-06T06:58:30.427Z,60.49
2023-05-06T06:59:30.451Z,42.19
2023-05-06T07:00:30.489Z,60.19
2023-05-06T07:01:30.585Z,94.59
2023-05-06T07:02:30.572Z,54.73
2023-05-06T07:03:30.576Z,65.76
2023-05-06T07:04:30.627Z,83.01
2023-05-06T07:05:30.552Z,65.72
2023-05-06T07:06:30.596Z,61.40
2023-05-06T07:07:30.646Z,69.31
2023-05-06T07:08:30.708Z,60.96
2023-05-06T07:09:30.839Z,50.10
2023-05-06T07:10:30.796Z,22.82
2023-05-06T07:11:30.826Z,28.43
2023-05-06T07:12:30.907Z,36.15
2023-05-06T07:13:30.898Z,26.39
2023-05-06T07:14:30.920Z,45.53
2023-05-06T07:15:30.951Z,65.90
2023-05-06T07:16:31.005Z,35.62
2023-05-06T07:17:31.007Z,40.43
2023-05-06T07:18:31.050Z,43.38
2023-05-06T07:19:31.083Z,73.67
2023-05-06T07:20:31.119Z,54.28
2023-05-06T07:21:31.118Z,61.26
2023-05-06T07:22:31.112Z,44.18
2023-05-06T07:23:32.048Z,34.83
2023-05-06T07:24:31.218Z,62.56
2023-05-06T07:25:31.387Z,61.01
2023-05-06T07:26:31.253Z,68.21
2023-05-06T07:27:31.254Z,74.32
2023-05-06T07:28:31.262Z,67.35
2023-05-06T07:29:31.280Z,59.57
2023-05-06T07:30:31.283Z,46.86
2023-05-06T07:31:31.364Z,67.53
2023-05-06T07:32:31.312Z,59.38
2023-05-06T07:33:31.285Z,76.51
2023-05-06T07:34:31.283Z,98.69
2023-05-06T07:35:31.272Z,136.71
2023-05-06T07:36:31.270Z,146.76
2023-05-06T07:37:31.265Z,166.36
2023-05-06T07:38:31.261Z,139.28
2023-05-06T07:39:31.293Z,118.97
2023-05-06T07:40:31.259Z,124.76
2023-05-06T07:41:31.345Z,141.15
2023-05-06T07:42:31.249Z,107.01
2023-05-06T07:43:31.264Z,108.43
2023-05-06T07:44:31.277Z,113.21
2023-05-06T07:45:31.266Z,129.27
2023-05-06T07:46:31.357Z,147.22
2023-05-06T07:47:31.491Z,164.97
2023-05-06T07:48:31.336Z,204.19
2023-05-06T07:49:31.251Z,197.94
2023-05-06T07:50:31.259Z,203.67
2023-05-06T07:51:31.253Z,227.02
2023-05-06T07:52:31.243Z,221.30
2023-05-06T07:53:31.216Z,221.46
2023-05-06T07:54:31.196Z,199.58
2023-05-06T07:55:32.696Z,190.47
2023-05-06T07:56:31.116Z,185.85
2023-05-06T07:57:31.218Z,154.04
2023-05-06T07:58:31.073Z,153.29
2023-05-06T07:59:31.038Z,183.69
2023-05-06T08:00:30.986Z,193.84
2023-05-06T08:01:30.936Z,181.91
2023-05-06T08:02:30.933Z,184.44
2023-05-06T08:03:31.048Z,160.67
2023-05-06T08:04:30.856Z,91.06
2023-05-06T08:05:30.773Z,115.94
2023-05-06T08:06:30.731Z,103.37
2023-05-06T08:07:30.692Z,60.94
2023-05-06T08:08:30.641Z,104.87
2023-05-06T08:09:30.599Z,67.46
2023-05-06T08:10:30.559Z,45.42
2023-05-06T08:11:30.523Z,63.39
2023-05-06T08:12:30.471Z,73.39
2023-05-06T08:13:30.549Z,63.30
2023-05-06T08:14:30.384Z,115.54
2023-05-06T08:15:30.376Z,103.27
2023-05-06T08:16:31.658Z,82.26
2023-05-06T08:17:30.340Z,77.96
2023-05-06T08:18:30.346Z,60.21
2023-05-06T08:19:30.201Z,11.75
2023-05-06T08:20:30.164Z,48.29
2023-05-06T08:21:30.135Z,24.38
2023-05-06T08:22:30.150Z,0.00
2023-05-06T08:23:30.125Z,0.00
2023-05-06T08:24:30.097Z,0.00
2023-05-06T08:25:30.087Z,0.00
2023-05-06T08:26:30.051Z,0.00
2023-05-06T08:27:30.055Z,5.30
2023-05-06T08:28:30.047Z,25.00
2023-05-06T08:29:30.059Z,37.88
2023-05-06T08:30:30.058Z,25.00
2023-05-06T08:31:30.035Z,34.90
2023-05-06T08:32:30.054Z,0.00
2023-05-06T08:33:30.037Z,27.37
2023-05-06T08:34:30.012Z,16.33
2023-05-06T08:35:30.028Z,33.75
2023-05-06T08:36:30.042Z,62.90
2023-05-06T08:37:30.039Z,83.79
2023-05-06T08:38:30.077Z,71.96
2023-05-06T08:39:30.084Z,118.60
2023-05-06T08:40:30.096Z,64.01
2023-05-06T08:41:30.103Z,18.79
2023-05-06T08:42:31.127Z,0.00
2023-05-06T08:43:30.135Z,0.00
2023-05-06T08:44:30.123Z,43.46
2023-05-06T08:45:30.176Z,156.71
2023-05-06T08:46:30.115Z,209.15
2023-05-06T08:47:30.182Z,134.73
2023-05-06T08:48:30.169Z,169.88
2023-05-06T08:49:30.197Z,155.35
2023-05-06T08:50:30.200Z,164.60
2023-05-06T08:51:30.228Z,190.48
2023-05-06T08:52:30.257Z,229.72
2023-05-06T08:53:30.262Z,217.64
2023-05-06T08:54:30.253Z,235.84
2023-05-06T08:55:30.259Z,209.61
2023-05-06T08:56:30.279Z,88.37
2023-05-06T08:57:30.229Z,43.85
2023-05-06T08:58:30.223Z,18.85
2023-05-06T08:59:30.253Z,49.70
2023-05-06T09:00:30.208Z,115.61
2023-05-06T09:01:30.313Z,195.26
2023-05-06T09:02:30.343Z,196.78
2023-05-06T09:03:30.382Z,183.63
2023-05-06T09:04:30.236Z,157.60
2023-05-06T09:05:30.245Z,115.71
2023-05-06T09:06:30.280Z,88.86
2023-05-06T09:07:30.317Z,76.23
2023-05-06T09:08:30.322Z,88.07
2023-05-06T09:09:30.292Z,66.29
2023-05-06T09:10:30.255Z,104.93
2023-05-06T09:11:30.288Z,47.49
2023-05-06T09:12:30.285Z,38.56
2023-05-06T09:13:30.302Z,37.49
2023-05-06T09:14:30.264Z,54.44
2023-05-06T09:15:30.244Z,76.69
2023-05-06T09:16:30.238Z,47.79
2023-05-06T09:17:30.289Z,39.15
2023-05-06T09:18:30.143Z,81.79
2023-05-06T09:19:30.216Z,71.07
2023-05-06T09:20:30.164Z,60.26
2023-05-06T09:21:30.171Z,49.31
2023-05-06T09:22:30.169Z,52.36
2023-05-06T09:23:30.163Z,108.86
2023-05-06T09:24:30.150Z,151.95
2023-05-06T09:25:30.136Z,179.18
2023-05-06T09:26:30.145Z,198.61
2023-05-06T09:27:30.091Z,194.01
2023-05-06T09:28:30.073Z,175.13
2023-05-06T09:29:30.037Z,161.71
2023-05-06T09:30:29.999Z,195.59
2023-05-06T09:31:30.074Z,182.79
2023-05-06T09:32:29.997Z,192.78
2023-05-06T09:33:29.931Z,140.89
2023-05-06T09:34:29.895Z,176.94
2023-05-06T09:35:29.876Z,206.34
2023-05-06T09:36:29.864Z,196.28
2023-05-06T09:37:29.833Z,235.07
2023-05-06T09:38:29.808Z,270.43
2023-05-06T09:39:29.782Z,248.54
2023-05-06T09:40:29.758Z,230.62
2023-05-06T09:41:29.747Z,250.56
2023-05-06T09:42:29.711Z,261.75
2023-05-06T09:43:29.683Z,250.21
2023-05-06T09:44:29.674Z,253.15
2023-05-06T09:45:29.635Z,240.90
2023-05-06T09:46:29.652Z,258.06
2023-05-06T09:47:29.615Z,248.38
2023-05-06T09:48:29.556Z,250.37
2023-05-06T09:49:29.545Z,251.06
2023-05-06T09:50:29.497Z,250.33
2023-05-06T09:51:29.479Z,242.57
2023-05-06T09:52:29.478Z,259.32
2023-05-06T09:53:29.433Z,242.90
2023-05-06T09:54:29.429Z,241.91
2023-05-06T09:55:29.461Z,238.90
2023-05-06T09:56:29.435Z,251.11
2023-05-06T09:57:29.440Z,252.92
2023-05-06T09:58:29.432Z,257.56
2023-05-06T09:59:29.448Z,260.02
2023-05-06T10:00:29.482Z,245.97
2023-05-06T10:01:36.690Z,242.24
2023-05-06T10:02:29.671Z,242.29
2023-05-06T10:03:29.515Z,243.64
2023-05-06T10:04:29.489Z,249.04
2023-05-06T10:05:29.432Z,262.27
2023-05-06T10:06:29.141Z,295.08
2023-05-06T10:07:29.101Z,277.45
2023-05-06T10:08:29.034Z,264.22
2023-05-06T10:09:28.958Z,251.47
2023-05-06T10:10:28.922Z,245.39
2023-05-06T10:11:28.838Z,237.83
2023-05-06T10:12:28.822Z,234.02
2023-05-06T10:13:28.711Z,214.42
2023-05-06T10:14:28.650Z,206.23
2023-05-06T10:15:28.592Z,208.82
2023-05-06T10:16:28.623Z,209.18
2023-05-06T10:17:28.516Z,203.77
2023-05-06T10:18:28.863Z,207.30
2023-05-06T10:19:28.347Z,208.52
2023-05-06T10:20:28.309Z,199.65
2023-05-06T10:21:28.252Z,217.49
2023-05-06T10:22:28.158Z,213.84
2023-05-06T10:23:28.098Z,223.71
2023-05-06T10:24:28.035Z,219.31
2023-05-06T10:25:27.955Z,221.80
2023-05-06T10:26:28.295Z,209.36
2023-05-06T10:27:27.906Z,191.86
2023-05-06T10:28:31.429Z,183.49
2023-05-06T10:29:27.860Z,174.82
2023-05-06T10:30:27.758Z,166.01
2023-05-06T10:31:27.738Z,160.82
2023-05-06T10:32:27.658Z,138.82
2023-05-06T10:33:27.638Z,150.97
2023-05-06T10:34:27.527Z,137.40
2023-05-06T10:35:27.482Z,145.26
2023-05-06T10:36:27.407Z,138.82
2023-05-06T10:37:27.439Z,140.24
2023-05-06T10:38:27.267Z,152.26
2023-05-06T10:39:27.200Z,163.62
2023-05-06T10:40:27.121Z,140.09
2023-05-06T10:41:27.054Z,136.91
2023-05-06T10:42:26.989Z,116.88
2023-05-06T10:43:26.945Z,84.23
2023-05-06T10:44:26.883Z,80.24
2023-05-06T10:45:26.802Z,114.72
2023-05-06T10:46:26.800Z,66.96
2023-05-06T10:47:26.865Z,69.30
2023-05-06T10:48:26.782Z,75.92
2023-05-06T10:49:26.791Z,69.20
2023-05-06T10:50:26.798Z,21.75
2023-05-06T10:51:26.675Z,23.88
2023-05-06T10:52:26.668Z,19.46
2023-05-06T10:53:26.776Z,1.85
2023-05-06T10:54:26.645Z,9.07
2023-05-06T10:55:26.678Z,2.53
2023-05-06T10:56:26.602Z,12.62
2023-05-06T10:57:26.724Z,11.86
2023-05-06T10:58:26.543Z,30.51
2023-05-06T10:59:26.590Z,48.99
2023-05-06T11:00:26.600Z,51.35
2023-05-06T11:01:26.678Z,72.87
2023-05-06T11:02:26.632Z,93.21
2023-05-06T11:03:26.672Z,110.19
2023-05-06T11:04:26.506Z,111.39
2023-05-06T11:05:26.433Z,120.46
2023-05-06T11:06:26.363Z,119.77
2023-05-06T11:07:26.293Z,130.63
2023-05-06T11:08:26.272Z,130.37
2023-05-06T11:09:26.369Z,125.81
2023-05-06T11:10:26.200Z,115.82
2023-05-06T11:11:27.642Z,106.67
2023-05-06T11:12:26.156Z,88.93
2023-05-06T11:13:26.374Z,87.57
2023-05-06T11:14:26.123Z,89.52
2023-05-06T11:15:26.114Z,56.61
2023-05-06T11:16:26.190Z,47.13
2023-05-06T11:17:26.153Z,81.82
2023-05-06T11:18:26.148Z,106.76
2023-05-06T11:19:26.198Z,132.34
2023-05-06T11:20:26.198Z,137.41
2023-05-06T11:21:26.167Z,123.00
2023-05-06T11:22:26.163Z,103.47
2023-05-06T11:23:26.171Z,91.68
2023-05-06T11:24:26.226Z,93.08
2023-05-06T11:25:26.271Z,92.59
2023-05-06T11:26:26.169Z,92.30
2023-05-06T11:27:26.201Z,86.52
2023-05-06T11:28:26.215Z,88.49
2023-05-06T11:29:26.289Z,120.90
2023-05-06T11:30:26.279Z,136.87
2023-05-06T11:31:26.322Z,125.43
2023-05-06T11:32:26.369Z,116.72
2023-05-06T11:33:26.349Z,110.46
2023-05-06T11:34:26.352Z,110.78
2023-05-06T11:35:26.333Z,83.55
2023-05-06T11:36:26.336Z,63.07
2023-05-06T11:37:26.398Z,56.14
2023-05-06T11:38:26.396Z,66.44
2023-05-06T11:39:26.436Z,61.20
2023-05-06T11:40:26.421Z,45.25
2023-05-06T11:41:26.661Z,33.35
2023-05-06T11:42:26.465Z,39.06
2023-05-06T11:43:26.441Z,39.52
2023-05-06T11:44:26.465Z,35.50
2023-05-06T11:45:26.500Z,8.97
2023-05-06T11:46:26.480Z,25.00
2023-05-06T11:47:26.459Z,31.91
2023-05-06T11:48:26.467Z,0.00
2023-05-06T11:49:26.489Z,0.00
2023-05-06T11:50:26.505Z,0.00
2023-05-06T11:51:26.537Z,0.00
2023-05-06T11:52:26.820Z,14.47
2023-05-06T11:53:26.597Z,41.13
2023-05-06T11:54:26.526Z,56.48
2023-05-06T11:55:26.573Z,73.45
2023-05-06T11:56:26.603Z,93.01
2023-05-06T11:57:26.692Z,137.96
2023-05-06T11:58:26.741Z,140.12
2023-05-06T11:59:26.569Z,132.99
2023-05-06T12:00:26.571Z,102.92
2023-05-06T12:01:26.592Z,95.22
2023-05-06T12:02:26.715Z,80.75
2023-05-06T12:03:26.826Z,89.13
2023-05-06T12:04:26.703Z,101.33
2023-05-06T12:05:26.689Z,89.30
2023-05-06T12:06:26.726Z,100.58
2023-05-06T12:07:26.876Z,83.00
2023-05-06T12:08:28.246Z,84.22
2023-05-06T12:09:27.015Z,78.22
2023-05-06T12:10:26.956Z,59.80
2023-05-06T12:11:26.967Z,42.05
2023-05-06T12:12:26.966Z,41.54
2023-05-06T12:13:27.051Z,22.68
2023-05-06T12:14:26.993Z,28.94
2023-05-06T12:15:26.949Z,50.51
2023-05-06T12:16:26.994Z,46.66
2023-05-06T12:17:26.903Z,55.82
2023-05-06T12:18:26.870Z,14.61
2023-05-06T12:19:26.883Z,6.88
2023-05-06T12:20:26.893Z,14.04
2023-05-06T12:21:26.906Z,22.66
2023-05-06T12:22:26.940Z,25.36
2023-05-06T12:23:26.952Z,33.13
2023-05-06T12:24:26.954Z,31.80
2023-05-06T12:25:26.955Z,42.76
2023-05-06T12:26:26.961Z,46.16
2023-05-06T12:27:26.939Z,33.27
2023-05-06T12:28:26.923Z,24.93
2023-05-06T12:29:27.051Z,24.16
2023-05-06T12:30:26.925Z,38.09
2023-05-06T12:31:26.987Z,33.76
2023-05-06T12:32:26.937Z,31.42
2023-05-06T12:33:26.874Z,34.22
2023-05-06T12:34:26.876Z,15.21
2023-05-06T12:35:26.911Z,20.10
2023-05-06T12:36:26.927Z,27.86
2023-05-06T12:37:26.946Z,26.80
2023-05-06T12:38:26.956Z,15.99
2023-05-06T12:39:26.966Z,25.64
2023-05-06T12:40:26.932Z,22.49
2023-05-06T12:41:26.907Z,24.84
2023-05-06T12:42:26.998Z,19.56
2023-05-06T12:43:26.918Z,25.85